»·PEaware :: HAL21 KSEA-PHNL

HAL21 :: KSEA-PHNL

FLIGHT INFORMATION

Flight Status: Arrived
Operator:
Hawaiian Airlines
More flights by this operator :: More flights under this callsign
Pilot: Cooper L. (8467)
Aircraft: AIRBUS A330
(A330)
More flights by this aircraft type
Origin: KSEA Seattle-Tacoma Intl
United States
Destination: PHNL Honolulu Intl
United States
More flights between these airports :: More routes between these airports
Route: +HAROB5 HQM SEDAR FOZZI HEKAB A332 AUNTI R463 APACK MAGGI3
File this flight plan on PilotEdge
Remarks:
Altitude:
(Current/Filed)
40,000ft
Speed:
(Current/Filed)
503kts
Departed: 12-Jun-17 03:11 PM
Arrived: 12-Jun-17 08:46 PM
Distance/Time
Traveled:
2324nm/5:35
Distance/Time
To Go:
Arrived

Flight Plot

Page will automatically refresh every two minutes.

Flight plan parsing failed; only flown route is shown


Map Options




Map Legend


Flown Route
Filed Route
Departure Airport
Arrival Airport
Navaid (VOR, NDB)
Fix

Horizontal Profiles

Position Reports

Time Latitude Longitude Heading Altitude Ground
Speed
12-Jun-17 14:52 47.438571 -122.304097 70 378ft 0kts
12-Jun-17 14:53 47.438571 -122.304097 70 378ft 0kts
12-Jun-17 14:54 47.438571 -122.304097 70 378ft 0kts
12-Jun-17 14:55 47.438571 -122.304097 70 378ft 0kts
12-Jun-17 14:56 47.438571 -122.304097 70 378ft 0kts
12-Jun-17 14:57 47.438571 -122.304097 70 378ft 0kts
12-Jun-17 14:58 47.438571 -122.304097 70 378ft 0kts
12-Jun-17 14:59 47.438571 -122.304097 70 378ft 0kts
12-Jun-17 15:00 47.438571 -122.304097 70 378ft 0kts
12-Jun-17 15:01 47.438571 -122.304097 70 378ft 0kts
12-Jun-17 15:02 47.438571 -122.304097 70 378ft 0kts
12-Jun-17 15:03 47.438571 -122.304097 70 378ft 0kts
12-Jun-17 15:04 47.438571 -122.304097 70 378ft 0kts
12-Jun-17 15:05 47.438571 -122.304097 70 378ft 0kts
12-Jun-17 15:06 47.438499 -122.304408 68 377ft 0kts
12-Jun-17 15:07 47.438277 -122.304538 3 376ft 0kts
12-Jun-17 15:08 47.438277 -122.304538 3 376ft 0kts
12-Jun-17 15:09 47.438914 -122.305576 313 378ft 14kts
12-Jun-17 15:10 47.446286 -122.306286 1 401ft 35kts
12-Jun-17 15:11 47.454121 -122.306224 0 433ft 25kts
12-Jun-17 15:12 47.462651 -122.306096 358 426ft 21kts
12-Jun-17 15:13 47.460454 -122.307776 179 434ft 54kts
12-Jun-17 15:14 47.421192 -122.308267 178 1344ft 178kts
12-Jun-17 15:15 47.363914 -122.309119 181 3016ft 270kts
12-Jun-17 15:16 47.316538 -122.377687 257 7217ft 288kts
12-Jun-17 15:17 47.308984 -122.486932 273 10415ft 278kts
12-Jun-17 15:18 47.311465 -122.601289 275 12296ft 291kts
12-Jun-17 15:19 47.314740 -122.724218 274 12785ft 351kts
12-Jun-17 15:20 47.288621 -122.870457 251 14200ft 387kts
12-Jun-17 15:21 47.249678 -123.017401 250 16214ft 395kts
12-Jun-17 15:22 47.209915 -123.168777 250 18095ft 403kts
12-Jun-17 15:23 47.175453 -123.299678 250 19534ft 411kts
12-Jun-17 15:24 47.134280 -123.455147 250 21126ft 419kts
12-Jun-17 15:25 47.092792 -123.610775 250 22594ft 426kts
12-Jun-17 15:26 47.049432 -123.772439 249 23928ft 435kts
12-Jun-17 15:27 47.004769 -123.937669 250 25180ft 443kts
12-Jun-17 15:28 46.960889 -124.098914 250 26248ft 451kts
12-Jun-17 15:29 46.891797 -124.251875 235 27125ft 468kts
12-Jun-17 15:30 46.813246 -124.398060 235 28021ft 475kts
12-Jun-17 15:31 46.731272 -124.549475 235 28955ft 480kts
12-Jun-17 15:32 46.648303 -124.701951 234 29926ft 482kts
12-Jun-17 15:33 46.566398 -124.851614 235 31094ft 478kts
12-Jun-17 15:34 46.485295 -124.998983 235 32539ft 464kts
12-Jun-17 15:35 46.409142 -125.136669 235 33491ft 458kts
12-Jun-17 15:36 46.329652 -125.279643 235 34265ft 455kts
12-Jun-17 15:37 46.251455 -125.419577 235 35803ft 447kts
12-Jun-17 15:38 46.176129 -125.553720 235 36972ft 447kts
12-Jun-17 15:39 46.101176 -125.686602 234 37959ft 447kts
12-Jun-17 15:40 46.022634 -125.825192 234 38622ft 448kts
12-Jun-17 15:41 45.944326 -125.962612 234 39511ft 447kts
12-Jun-17 15:42 45.865728 -126.099657 234 40205ft 448kts
12-Jun-17 15:43 45.787173 -126.236099 234 40166ft 447kts
12-Jun-17 15:44 45.707571 -126.373742 234 40204ft 454kts
12-Jun-17 15:45 45.626517 -126.513202 234 40258ft 459kts
12-Jun-17 15:46 45.545667 -126.651622 233 40258ft 458kts
12-Jun-17 15:47 45.456515 -126.781182 226 40273ft 463kts
12-Jun-17 15:48 45.363438 -126.904890 227 40270ft 462kts
12-Jun-17 15:49 45.269944 -127.030079 227 40260ft 460kts
12-Jun-17 15:50 45.177939 -127.152699 227 40267ft 454kts
12-Jun-17 15:51 45.102275 -127.253118 228 40263ft 450kts
12-Jun-17 15:53 44.995460 -127.394221 228 40263ft 459kts
12-Jun-17 15:54 44.901669 -127.517515 229 40266ft 463kts
12-Jun-17 15:54 44.823509 -127.619621 229 40263ft 462kts
12-Jun-17 15:56 44.713981 -127.762407 228 40265ft 462kts
12-Jun-17 15:57 44.619992 -127.884248 228 40266ft 463kts
12-Jun-17 15:57 44.541307 -127.985808 228 40271ft 462kts
12-Jun-17 15:58 44.447035 -128.106973 228 40274ft 462kts
12-Jun-17 16:00 44.336741 -128.248032 228 40274ft 462kts
12-Jun-17 16:01 44.242416 -128.368073 228 40275ft 462kts
12-Jun-17 16:01 44.163290 -128.468351 228 40274ft 462kts
12-Jun-17 16:02 44.068345 -128.588177 228 40275ft 462kts
12-Jun-17 16:03 43.974489 -128.706192 227 40301ft 461kts
12-Jun-17 16:04 43.882409 -128.821373 227 40274ft 448kts
12-Jun-17 16:05 43.789382 -128.937054 228 40284ft 450kts
12-Jun-17 16:06 43.697932 -129.050460 228 40293ft 442kts
12-Jun-17 16:07 43.607267 -129.162402 228 40280ft 436kts
12-Jun-17 16:08 43.516634 -129.273857 228 40279ft 438kts
12-Jun-17 16:09 43.426082 -129.384731 228 40292ft 438kts
12-Jun-17 16:10 43.335226 -129.495521 228 40282ft 438kts
12-Jun-17 16:11 43.244414 -129.605791 228 40279ft 438kts
12-Jun-17 16:12 43.153451 -129.715906 227 40291ft 439kts
12-Jun-17 16:13 43.062140 -129.825885 227 40286ft 438kts
12-Jun-17 16:14 42.970424 -129.935909 227 40271ft 444kts
12-Jun-17 16:15 42.882527 -130.053106 233 40251ft 448kts
12-Jun-17 16:16 42.799859 -130.179987 233 40263ft 446kts
12-Jun-17 16:17 42.717636 -130.306080 233 40258ft 448kts
12-Jun-17 16:18 42.635129 -130.432056 233 40251ft 448kts
12-Jun-17 16:19 42.552558 -130.557584 233 40257ft 448kts
12-Jun-17 16:20 42.469904 -130.682756 233 40262ft 448kts
12-Jun-17 16:21 42.386816 -130.808072 232 40256ft 448kts
12-Jun-17 16:22 42.303893 -130.932530 232 40255ft 443kts
12-Jun-17 16:23 42.221889 -131.055093 232 40259ft 439kts
12-Jun-17 16:24 42.140338 -131.176463 232 40258ft 440kts
12-Jun-17 16:25 42.058316 -131.298028 232 40255ft 439kts
12-Jun-17 16:26 41.976191 -131.419244 232 40257ft 439kts
12-Jun-17 16:27 41.893972 -131.540098 232 40258ft 439kts
12-Jun-17 16:28 41.811656 -131.660369 231 40257ft 439kts
12-Jun-17 16:29 41.729081 -131.780880 231 40255ft 439kts
12-Jun-17 16:30 41.646474 -131.900827 231 40259ft 440kts
12-Jun-17 16:31 41.563668 -132.020569 231 40259ft 440kts
12-Jun-17 16:32 41.480707 -132.140048 231 40256ft 440kts
12-Jun-17 16:33 41.397834 -132.258919 231 40256ft 440kts
12-Jun-17 16:34 41.315017 -132.377236 231 40258ft 440kts
12-Jun-17 16:35 41.231551 -132.496001 231 40257ft 440kts
12-Jun-17 16:36 41.148867 -132.613185 231 40255ft 440kts
12-Jun-17 16:37 41.065198 -132.731442 230 40258ft 445kts
12-Jun-17 16:38 40.980071 -132.851140 230 40259ft 451kts
12-Jun-17 16:39 40.894221 -132.971317 230 40256ft 453kts
12-Jun-17 16:40 40.807970 -133.091402 229 40256ft 452kts
12-Jun-17 16:41 40.721738 -133.211170 229 40258ft 449kts
12-Jun-17 16:42 40.635972 -133.329815 229 40257ft 450kts
12-Jun-17 16:43 40.549784 -133.448574 229 40256ft 450kts
12-Jun-17 16:44 40.463427 -133.567095 229 40257ft 450kts
12-Jun-17 16:45 40.376933 -133.685399 229 40258ft 450kts
12-Jun-17 16:46 40.290469 -133.803197 229 40258ft 450kts
12-Jun-17 16:47 40.203873 -133.920646 229 40257ft 450kts
12-Jun-17 16:48 40.116933 -134.038098 229 40258ft 450kts
12-Jun-17 16:49 40.030211 -134.154796 229 40257ft 450kts
12-Jun-17 16:50 39.943411 -134.271149 229 40257ft 450kts
12-Jun-17 16:51 39.855963 -134.387740 229 40256ft 450kts
12-Jun-17 16:52 39.768700 -134.503768 229 40256ft 450kts
12-Jun-17 16:53 39.681414 -134.619419 229 40257ft 450kts
12-Jun-17 16:54 39.593805 -134.735177 228 40256ft 451kts
12-Jun-17 16:55 39.506314 -134.850229 228 40258ft 450kts
12-Jun-17 16:56 39.418630 -134.965381 231 40257ft 447kts
12-Jun-17 16:57 39.347556 -135.094564 237 40265ft 441kts
12-Jun-17 16:58 39.277802 -135.224282 237 40255ft 441kts
12-Jun-17 16:59 39.208044 -135.353582 237 40253ft 440kts
12-Jun-17 17:00 39.138130 -135.482658 237 40259ft 441kts
12-Jun-17 17:01 39.067841 -135.611906 237 40258ft 441kts
12-Jun-17 17:02 38.997655 -135.740560 237 40255ft 443kts
12-Jun-17 17:03 38.926441 -135.870476 237 40258ft 446kts
12-Jun-17 17:04 38.854694 -136.000582 237 40264ft 450kts
12-Jun-17 17:05 38.782909 -136.130431 237 40271ft 448kts
12-Jun-17 17:06 38.710892 -136.260216 237 40266ft 449kts
12-Jun-17 17:07 38.638486 -136.390183 237 40263ft 449kts
12-Jun-17 17:08 38.566158 -136.519491 237 40266ft 449kts
12-Jun-17 17:09 38.493552 -136.648782 237 40267ft 449kts
12-Jun-17 17:10 38.420843 -136.777872 236 40266ft 449kts
12-Jun-17 17:11 38.347991 -136.906582 236 40266ft 448kts
12-Jun-17 17:12 38.275112 -137.034831 236 40267ft 446kts
12-Jun-17 17:13 38.202430 -137.162231 236 40266ft 446kts
12-Jun-17 17:14 38.129684 -137.289249 236 40265ft 446kts
12-Jun-17 17:15 38.056600 -137.416364 236 40266ft 446kts
12-Jun-17 17:16 37.983445 -137.543113 236 40266ft 446kts
12-Jun-17 17:17 37.910228 -137.669498 236 40268ft 446kts
12-Jun-17 17:18 37.836524 -137.796088 236 40265ft 446kts
12-Jun-17 17:19 37.763112 -137.921805 236 40266ft 447kts
12-Jun-17 17:20 37.689635 -138.047177 236 40267ft 447kts
12-Jun-17 17:21 37.615660 -138.172918 236 40267ft 447kts
12-Jun-17 17:22 37.541746 -138.298084 236 40265ft 447kts
12-Jun-17 17:23 37.467457 -138.423408 236 40266ft 447kts
12-Jun-17 17:24 37.393136 -138.548319 236 40266ft 447kts
12-Jun-17 17:25 37.319725 -138.671262 235 40267ft 447kts
12-Jun-17 17:26 37.249904 -138.787861 235 40267ft 447kts
12-Jun-17 17:27 37.175253 -138.911967 235 40267ft 447kts
12-Jun-17 17:28 37.100494 -139.035781 235 40266ft 446kts
12-Jun-17 17:29 37.025255 -139.159947 235 40266ft 452kts
12-Jun-17 17:30 36.948950 -139.285406 235 40268ft 457kts
12-Jun-17 17:31 36.871899 -139.411425 235 40267ft 455kts
12-Jun-17 17:32 36.795101 -139.536657 235 40265ft 456kts
12-Jun-17 17:33 36.718010 -139.661987 235 40266ft 457kts
12-Jun-17 17:34 36.642939 -139.783717 234 40267ft 456kts
12-Jun-17 17:35 36.565984 -139.907920 234 40267ft 457kts
12-Jun-17 17:36 36.488423 -140.032637 234 40266ft 457kts
12-Jun-17 17:37 36.411912 -140.155217 234 40265ft 457kts
12-Jun-17 17:38 36.334271 -140.279158 234 40266ft 457kts
12-Jun-17 17:39 36.256335 -140.403119 234 40267ft 457kts
12-Jun-17 17:40 36.178191 -140.526960 234 40267ft 457kts
12-Jun-17 17:41 36.100109 -140.650253 234 40265ft 457kts
12-Jun-17 17:42 36.021778 -140.773621 234 40267ft 457kts
12-Jun-17 17:43 35.943364 -140.896558 234 40267ft 457kts
12-Jun-17 17:44 35.865186 -141.018505 234 40266ft 452kts
12-Jun-17 17:45 35.787488 -141.139397 234 40266ft 449kts
12-Jun-17 17:46 35.712205 -141.256172 234 40267ft 450kts
12-Jun-17 17:47 35.634569 -141.376190 234 40266ft 450kts
12-Jun-17 17:48 35.556696 -141.496156 234 40266ft 450kts
12-Jun-17 17:49 35.478695 -141.615907 234 40266ft 450kts
12-Jun-17 17:50 35.401182 -141.734619 233 40266ft 450kts
12-Jun-17 17:51 35.323080 -141.853717 233 40267ft 450kts
12-Jun-17 17:52 35.244544 -141.973052 233 40266ft 450kts
12-Jun-17 17:53 35.168627 -142.088020 233 40267ft 450kts
12-Jun-17 17:54 35.089876 -142.206880 233 40266ft 450kts
12-Jun-17 17:55 35.011158 -142.325297 233 40266ft 451kts
12-Jun-17 17:56 34.931278 -142.444951 233 40266ft 460kts
12-Jun-17 17:57 34.850222 -142.565711 232 40266ft 465kts
12-Jun-17 17:58 34.768568 -142.687186 232 40203ft 463kts
12-Jun-17 17:59 34.687104 -142.807994 232 40145ft 463kts
12-Jun-17 18:00 34.605659 -142.928305 231 40150ft 459kts
12-Jun-17 18:01 34.525070 -143.046945 231 40148ft 456kts
12-Jun-17 18:02 34.444545 -143.165075 231 40146ft 457kts
12-Jun-17 18:03 34.363566 -143.283486 231 40147ft 456kts
12-Jun-17 18:04 34.282651 -143.401412 231 40148ft 456kts
12-Jun-17 18:05 34.202037 -143.518510 231 40133ft 457kts
12-Jun-17 18:06 34.120878 -143.636014 231 40141ft 456kts
12-Jun-17 18:07 34.039473 -143.753610 231 40141ft 456kts
12-Jun-17 18:08 33.958344 -143.870307 231 40137ft 457kts
12-Jun-17 18:09 33.879487 -143.983283 230 40139ft 457kts
12-Jun-17 18:10 33.797702 -144.100032 231 40138ft 456kts
12-Jun-17 18:11 33.715948 -144.216482 231 40139ft 457kts
12-Jun-17 18:12 33.636455 -144.329354 231 40131ft 457kts
12-Jun-17 18:13 33.555063 -144.444558 231 40126ft 457kts
12-Jun-17 18:14 33.472796 -144.560626 231 40130ft 457kts
12-Jun-17 18:15 33.390657 -144.676185 230 40129ft 457kts
12-Jun-17 18:16 33.310779 -144.788266 230 40130ft 457kts
12-Jun-17 18:17 33.228595 -144.903125 230 40124ft 457kts
12-Jun-17 18:18 33.146257 -145.017843 230 40121ft 456kts
12-Jun-17 18:19 33.063825 -145.132337 229 40123ft 456kts
12-Jun-17 18:20 32.983720 -145.243227 229 40119ft 456kts
12-Jun-17 18:21 32.900554 -145.358002 229 40119ft 459kts
12-Jun-17 18:22 32.817497 -145.472080 229 40121ft 459kts
12-Jun-17 18:23 32.734369 -145.586090 229 40121ft 458kts
12-Jun-17 18:24 32.653150 -145.697254 229 40119ft 458kts
12-Jun-17 18:25 32.569595 -145.811197 228 40119ft 458kts
12-Jun-17 18:26 32.486105 -145.924661 228 40121ft 458kts
12-Jun-17 18:27 32.404646 -146.035029 228 40121ft 458kts
12-Jun-17 18:28 32.321178 -146.147779 228 40120ft 458kts
12-Jun-17 18:29 32.237278 -146.260767 228 40119ft 458kts
12-Jun-17 18:30 32.153267 -146.373562 228 40119ft 458kts
12-Jun-17 18:31 32.071490 -146.483029 228 40120ft 458kts
12-Jun-17 18:32 31.987459 -146.595179 228 40120ft 458kts
12-Jun-17 18:33 31.903221 -146.707379 228 40120ft 458kts
12-Jun-17 18:34 31.818717 -146.819328 228 40120ft 458kts
12-Jun-17 18:35 31.734236 -146.931067 228 40119ft 457kts
12-Jun-17 18:36 31.650613 -147.041352 228 40120ft 454kts
12-Jun-17 18:37 31.566847 -147.151491 227 40121ft 452kts
12-Jun-17 18:38 31.484256 -147.259766 227 40120ft 452kts
12-Jun-17 18:39 31.402676 -147.366419 227 40119ft 452kts
12-Jun-17 18:40 31.319030 -147.475464 227 40119ft 452kts
12-Jun-17 18:41 31.235264 -147.584351 227 40120ft 452kts
12-Jun-17 18:42 31.151208 -147.693400 227 40120ft 452kts
12-Jun-17 18:43 31.067190 -147.802032 227 40119ft 452kts
12-Jun-17 18:44 30.997048 -147.892445 227 40120ft 452kts
12-Jun-17 18:46 30.899597 -148.017715 227 40119ft 452kts
12-Jun-17 18:47 30.814848 -148.126149 227 40120ft 452kts
12-Jun-17 18:48 30.730402 -148.234057 227 40121ft 452kts
12-Jun-17 18:49 30.645964 -148.341658 227 40121ft 452kts
12-Jun-17 18:50 30.561402 -148.449117 227 40120ft 452kts
12-Jun-17 18:51 30.476670 -148.556493 227 40119ft 452kts
12-Jun-17 18:52 30.392914 -148.662351 227 40121ft 452kts
12-Jun-17 18:52 30.322164 -148.751662 227 40120ft 452kts
12-Jun-17 18:53 30.237211 -148.858498 227 40120ft 451kts
12-Jun-17 18:54 30.152982 -148.964121 226 40120ft 447kts
12-Jun-17 18:55 30.069166 -149.068936 226 40120ft 443kts
12-Jun-17 18:57 29.971555 -149.190800 226 40120ft 444kts
12-Jun-17 18:57 29.901891 -149.277568 226 40119ft 444kts
12-Jun-17 18:58 29.817837 -149.381824 226 40121ft 444kts
12-Jun-17 18:59 29.734205 -149.485452 226 40121ft 444kts
12-Jun-17 19:00 29.650004 -149.589519 226 40120ft 444kts
12-Jun-17 19:01 29.566245 -149.692876 225 40119ft 444kts
12-Jun-17 19:02 29.482206 -149.796242 225 40119ft 444kts
12-Jun-17 19:03 29.397919 -149.899601 225 40121ft 444kts
12-Jun-17 19:04 29.313531 -150.002814 225 40121ft 444kts
12-Jun-17 19:05 29.229355 -150.105502 225 40120ft 444kts
12-Jun-17 19:06 29.145337 -150.207737 225 40108ft 442kts
12-Jun-17 19:07 29.060814 -150.310272 226 40111ft 441kts
12-Jun-17 19:08 28.977022 -150.411707 227 40112ft 443kts
12-Jun-17 19:09 28.892446 -150.513880 228 40110ft 443kts
12-Jun-17 19:10 28.807912 -150.615524 228 40111ft 444kts
12-Jun-17 19:11 28.725339 -150.714854 227 40111ft 443kts
12-Jun-17 19:12 28.640746 -150.816253 227 40111ft 443kts
12-Jun-17 19:13 28.555839 -150.917760 227 40112ft 444kts
12-Jun-17 19:14 28.473451 -151.015983 228 40110ft 444kts
12-Jun-17 19:15 28.388041 -151.117591 228 40111ft 447kts
12-Jun-17 19:16 28.301734 -151.220015 229 40110ft 452kts
12-Jun-17 19:17 28.215341 -151.322293 229 40110ft 450kts
12-Jun-17 19:18 28.130831 -151.422079 229 40110ft 450kts
12-Jun-17 19:19 28.043992 -151.524365 229 40109ft 451kts
12-Jun-17 19:20 27.957242 -151.626292 229 40110ft 451kts
12-Jun-17 19:21 27.870624 -151.727822 229 40112ft 451kts
12-Jun-17 19:22 27.783897 -151.829161 229 40111ft 451kts
12-Jun-17 19:23 27.696862 -151.930666 229 40111ft 451kts
12-Jun-17 19:24 27.609572 -152.032222 229 40111ft 451kts
12-Jun-17 19:25 27.522472 -152.133312 229 40111ft 451kts
12-Jun-17 19:26 27.435316 -152.234223 229 40110ft 451kts
12-Jun-17 19:27 27.349966 -152.332806 229 40110ft 451kts
12-Jun-17 19:28 27.262819 -152.433227 229 40111ft 451kts
12-Jun-17 19:29 27.175441 -152.533674 229 40110ft 451kts
12-Jun-17 19:30 27.087873 -152.634100 229 40110ft 451kts
12-Jun-17 19:31 27.002660 -152.731724 228 40111ft 451kts
12-Jun-17 19:32 26.914978 -152.831826 228 40111ft 451kts
12-Jun-17 19:33 26.827124 -152.931703 228 40112ft 452kts
12-Jun-17 19:34 26.738594 -153.032267 227 40111ft 455kts
12-Jun-17 19:35 26.649640 -153.133089 227 40110ft 459kts
12-Jun-17 19:36 26.560474 -153.233905 227 40110ft 458kts
12-Jun-17 19:37 26.471099 -153.334728 227 40110ft 458kts
12-Jun-17 19:38 26.381729 -153.435309 227 40111ft 458kts
12-Jun-17 19:39 26.295028 -153.532663 227 40111ft 458kts
12-Jun-17 19:40 26.205362 -153.633116 227 40110ft 458kts
12-Jun-17 19:41 26.115743 -153.733406 227 40112ft 458kts
12-Jun-17 19:42 26.026162 -153.833310 227 40112ft 458kts
12-Jun-17 19:43 25.936029 -153.933589 227 40111ft 458kts
12-Jun-17 19:44 25.846014 -154.033363 227 40111ft 458kts
12-Jun-17 19:45 25.756270 -154.132730 227 40110ft 458kts
12-Jun-17 19:46 25.666192 -154.232264 227 40110ft 458kts
12-Jun-17 19:47 25.578536 -154.328908 227 40111ft 458kts
12-Jun-17 19:48 25.488395 -154.428071 227 40110ft 458kts
12-Jun-17 19:49 25.408634 -154.515630 227 40111ft 458kts
12-Jun-17 19:50 25.318411 -154.614467 227 40111ft 458kts
12-Jun-17 19:51 25.228323 -154.713053 227 40111ft 459kts
12-Jun-17 19:52 25.138118 -154.811451 227 40111ft 459kts
12-Jun-17 19:53 25.047540 -154.910001 227 40111ft 456kts
12-Jun-17 19:54 24.958251 -155.006965 227 40110ft 449kts
12-Jun-17 19:55 24.872632 -155.099671 227 40115ft 450kts
12-Jun-17 19:56 24.783770 -155.195674 227 40110ft 448kts
12-Jun-17 19:57 24.700769 -155.296260 238 40110ft 444kts
12-Jun-17 19:58 24.629738 -155.407245 237 40126ft 444kts
12-Jun-17 19:59 24.559046 -155.518168 237 40138ft 444kts
12-Jun-17 20:00 24.488688 -155.628344 237 40136ft 444kts
12-Jun-17 20:01 24.418367 -155.738341 237 40138ft 445kts
12-Jun-17 20:02 24.347859 -155.848271 237 40139ft 445kts
12-Jun-17 20:03 24.279195 -155.955076 237 40138ft 444kts
12-Jun-17 20:04 24.208483 -156.064826 237 40139ft 444kts
12-Jun-17 20:05 24.138050 -156.173901 237 40138ft 445kts
12-Jun-17 20:06 24.067702 -156.282417 235 40137ft 445kts
12-Jun-17 20:07 23.959683 -156.343376 201 40126ft 462kts
12-Jun-17 20:08 23.840714 -156.379882 200 40130ft 463kts
12-Jun-17 20:09 23.720429 -156.415638 200 40129ft 463kts
12-Jun-17 20:10 23.602732 -156.450525 200 40128ft 463kts
12-Jun-17 20:11 23.482746 -156.486023 200 40128ft 463kts
12-Jun-17 20:12 23.362368 -156.521568 200 40129ft 463kts
12-Jun-17 20:13 23.242228 -156.556978 200 40128ft 463kts
12-Jun-17 20:14 23.120929 -156.592662 200 40128ft 463kts
12-Jun-17 20:15 22.999592 -156.628278 200 40128ft 463kts
12-Jun-17 20:16 22.886215 -156.661570 200 40129ft 461kts
12-Jun-17 20:17 22.773467 -156.694822 200 40067ft 462kts
12-Jun-17 20:18 22.653652 -156.729835 200 38022ft 464kts
12-Jun-17 20:19 22.535077 -156.764403 200 36427ft 449kts
12-Jun-17 20:20 22.418181 -156.798464 200 35026ft 452kts
12-Jun-17 20:21 22.301781 -156.832230 200 33668ft 455kts
12-Jun-17 20:22 22.183643 -156.866434 200 32288ft 469kts
12-Jun-17 20:23 22.060374 -156.902070 200 30715ft 484kts
12-Jun-17 20:24 21.935250 -156.938305 198 28265ft 486kts
12-Jun-17 20:25 21.829261 -156.988038 226 25979ft 470kts
12-Jun-17 20:26 21.760630 -157.070508 226 24786ft 442kts
12-Jun-17 20:27 21.686690 -157.163870 228 22537ft 435kts
12-Jun-17 20:28 21.626027 -157.241697 228 20678ft 429kts
12-Jun-17 20:29 21.557895 -157.329098 228 18248ft 404kts
12-Jun-17 20:30 21.489837 -157.416237 228 15572ft 381kts
12-Jun-17 20:31 21.425402 -157.498616 229 12649ft 361kts
12-Jun-17 20:32 21.363428 -157.577758 229 9701ft 346kts
12-Jun-17 20:33 21.309333 -157.646697 229 7716ft 317kts
12-Jun-17 20:34 21.269743 -157.719964 265 5802ft 298kts
12-Jun-17 20:35 21.262542 -157.800005 264 3949ft 287kts
12-Jun-17 20:36 21.254355 -157.881729 264 3295ft 282kts
12-Jun-17 20:37 21.247965 -157.962850 266 3301ft 280kts
12-Jun-17 20:38 21.242944 -158.040000 266 3296ft 239kts
12-Jun-17 20:39 21.238898 -158.106547 266 3311ft 224kts
12-Jun-17 20:40 21.235395 -158.171253 273 3304ft 222kts
12-Jun-17 20:41 21.277663 -158.188310 28 3319ft 198kts
12-Jun-17 20:42 21.323403 -158.159426 53 3315ft 197kts
12-Jun-17 20:43 21.325524 -158.103644 90 2997ft 192kts
12-Jun-17 20:44 21.325235 -158.052187 89 2021ft 152kts
12-Jun-17 20:45 21.325055 -158.013394 88 1144ft 121kts
12-Jun-17 20:46 21.325126 -157.975070 89 656ft 141kts
12-Jun-17 20:47 21.325213 -157.937171 86 27ft 116kts
12-Jun-17 20:48 21.325585 -157.922755 14 32ft 4kts
12-Jun-17 20:49 21.327674 -157.924011 289 38ft 16kts
12-Jun-17 20:50 21.328438 -157.926076 357 37ft 1kts
12-Jun-17 20:51 21.328733 -157.926088 359 37ft 0kts
12-Jun-17 20:52 21.328733 -157.926088 359 37ft 0kts
12-Jun-17 20:53 21.328733 -157.926088 359 37ft 0kts

Navigation Log

Ident Type
Flight plan parsing failed, navigation log unavailable